Terminal Aerodrome Forecast
Issued by NWS Twin Cities, MN

Home | Current Version | Previous Version | Graphics & Text | Print | Product List | Glossary On
Versions: 1 2 3 4 5 6 7 8 9 10 11 12 13 14 15 16 17 18 19 20 21
989
FTUS43 KMPX 192205 AAB
TAFSTC
TAF AMD
KSTC 192205Z 1922/2018 14010KT 6SM BR SCT070
     FM200000 17007KT 5SM BR OVC008
     FM200200 16006KT 1SM BR OVC005
     FM200400 14005KT 1/4SM -DZ FG VV002
     FM200900 12004KT 6SM BR OVC004=

USA.gov is the U.S. government's official web portal to all federal, state and local government web resources and services.